Time;durP1;ratioP1;P1;durP2;ratioP2;P2;SDS_P1;SDS_P2;PMS_P1;PMS_P2;Temp;Humidity;BMP_temperature;BMP_pressure;BME280_temperature;BME280_humidity;BME280_pressure;Samples;Min_cycle;Max_cycle;Signal;HPM_P1;HPM_P2
2022/11/04 00:01:12;;;;;;;1.77;1.10;;;;;;;9.81;100.00;99957.72;4985894;28;20054;-80
2022/11/04 00:03:38;;;;;;;1.63;1.10;;;;;;;9.84;99.63;99957.41;4958649;28;20049;-81
2022/11/04 00:06:03;;;;;;;3.03;1.30;;;;;;;9.92;98.83;99955.53;4984498;28;20053;-78
2022/11/04 00:08:29;;;;;;;4.65;1.50;;;;;;;9.90;99.06;99960.09;4980031;28;20019;-80
2022/11/04 00:13:44;;;;;;;2.10;0.90;;;;;;;9.87;99.55;99963.03;4975704;28;20582;-79
2022/11/04 00:18:53;;;;;;;4.55;1.92;;;;;;;9.81;99.70;99975.84;4972532;28;20488;-81
2022/11/04 00:29:32;;;;;;;4.80;2.83;;;;;;;9.80;99.56;99990.59;4982039;28;20152;-82
2022/11/04 00:34:41;;;;;;;4.55;1.60;;;;;;;9.77;100.00;100005.66;4984891;28;20148;-79
2022/11/04 00:37:06;;;;;;;4.88;2.00;;;;;;;9.80;100.00;99995.75;4991563;28;20038;-77
2022/11/04 00:39:32;;;;;;;2.47;1.60;;;;;;;9.85;100.00;100003.84;4983885;28;20042;-79
2022/11/04 00:41:57;;;;;;;3.92;2.05;;;;;;;9.81;100.00;99997.34;4977363;28;20042;-79
2022/11/04 00:44:23;;;;;;;2.75;1.70;;;;;;;9.86;100.00;100002.84;4993297;28;20047;-76
2022/11/04 00:46:48;;;;;;;3.08;1.63;;;;;;;9.83;100.00;100010.16;4972539;28;20050;-78
2022/11/04 00:49:14;;;;;;;5.32;2.20;;;;;;;9.79;100.00;100014.84;4991758;28;20080;-80
2022/11/04 00:51:39;;;;;;;3.42;1.88;;;;;;;9.88;100.00;100018.22;4991717;28;20034;-83
2022/11/04 00:54:05;;;;;;;4.05;1.90;;;;;;;9.85;100.00;100028.91;4973240;28;20030;-78
2022/11/04 00:56:30;;;;;;;5.47;2.30;;;;;;;9.90;100.00;100036.97;4981603;28;20050;-78
2022/11/04 00:58:58;;;;;;;5.10;2.30;;;;;;;9.85;100.00;100034.91;4965594;28;20063;-78
2022/11/04 01:01:24;;;;;;;2.97;2.17;;;;;;;9.92;100.00;100028.06;4971608;28;20671;-81
2022/11/04 01:03:51;;;;;;;6.60;2.70;;;;;;;9.83;100.00;100031.69;4972032;28;20035;-80
2022/11/04 01:06:19;;;;;;;6.80;2.10;;;;;;;9.73;100.00;100036.25;4985236;28;20038;-79
2022/11/04 01:08:44;;;;;;;4.10;2.50;;;;;;;9.73;100.00;100033.66;4979192;28;20122;-80
2022/11/04 01:11:10;;;;;;;3.53;2.53;;;;;;;9.90;100.00;100035.19;4979168;28;20043;-78
2022/11/04 01:13:37;;;;;;;4.53;2.63;;;;;;;9.82;100.00;100030.06;4979593;28;20046;-84
2022/11/04 01:16:05;;;;;;;5.82;2.70;;;;;;;9.66;100.00;100028.38;4970626;28;20069;-77
2022/11/04 01:18:31;;;;;;;4.32;2.47;;;;;;;9.65;100.00;100036.28;4977518;28;20027;-78
2022/11/04 01:21:01;;;;;;;5.35;2.55;;;;;;;9.75;100.00;100035.09;4987596;28;20061;-79
2022/11/04 01:23:26;;;;;;;6.53;2.20;;;;;;;9.68;100.00;100038.53;4981397;28;20053;-78
2022/11/04 01:25:52;;;;;;;5.93;2.30;;;;;;;9.59;100.00;100044.72;4986199;28;20035;-78
2022/11/04 01:28:17;;;;;;;3.85;2.38;;;;;;;9.57;100.00;100052.66;4974870;28;20029;-79
2022/11/04 01:30:42;;;;;;;6.78;2.80;;;;;;;9.65;100.00;100050.03;4991035;28;20048;-79
2022/11/04 01:33:08;;;;;;;6.20;2.63;;;;;;;9.54;100.00;100055.56;4979358;28;20050;-78
2022/11/04 01:35:33;;;;;;;5.75;2.70;;;;;;;9.58;100.00;100054.25;4977199;28;20038;-79
2022/11/04 01:37:59;;;;;;;5.05;2.90;;;;;;;9.63;100.00;100056.38;4953377;28;20038;-81
2022/11/04 01:40:25;;;;;;;7.75;2.72;;;;;;;9.51;100.00;100059.31;4972914;28;20053;-80
2022/11/04 01:42:50;;;;;;;4.93;2.53;;;;;;;9.44;100.00;100066.13;4990754;28;20034;-78
2022/11/04 01:45:19;;;;;;;6.15;2.63;;;;;;;9.40;100.00;100070.03;4989890;28;20037;-80
2022/11/04 01:48:02;;;;;;;4.80;2.75;;;;;;;9.41;100.00;100076.78;4996641;28;20046;-79
2022/11/04 01:50:29;;;;;;;;;;;;;;;9.37;100.00;100067.75;4995306;28;20951;-79
2022/11/04 01:53:06;;;;;;;7.57;2.20;;;;;;;9.33;100.00;100069.88;4976177;28;19937;-79
2022/11/04 01:55:34;;;;;;;7.85;2.60;;;;;;;9.32;100.00;100068.25;4975691;28;20035;-81
2022/11/04 01:58:13;;;;;;;9.02;2.88;;;;;;;9.21;100.00;100066.03;4968918;28;20038;-80
2022/11/04 02:00:40;;;;;;;6.68;2.85;;;;;;;9.18;100.00;100071.53;4975276;28;20050;-81
2022/11/04 02:03:19;;;;;;;7.95;2.25;;;;;;;9.24;100.00;100078.63;4972922;28;20527;-81
2022/11/04 02:05:46;;;;;;;4.32;2.15;;;;;;;9.22;100.00;100072.78;4981233;28;20045;-80
2022/11/04 02:08:14;;;;;;;6.57;2.10;;;;;;;9.14;100.00;100067.66;4988613;28;20034;-78
2022/11/04 02:10:43;;;;;;;8.82;2.88;;;;;;;9.12;100.00;100075.56;4978983;28;20046;-78
2022/11/04 02:13:09;;;;;;;4.25;2.00;;;;;;;9.11;100.00;100076.53;4978645;28;20046;-81
2022/11/04 02:15:43;;;;;;;4.07;1.90;;;;;;;9.09;100.00;100077.66;4977531;28;20045;-81
2022/11/04 02:18:30;;;;;;;4.30;1.70;;;;;;;9.02;100.00;100072.31;4972800;28;20053;-78
2022/11/04 02:21:15;;;;;;;2.10;1.35;;;;;;;8.98;100.00;100076.22;4973734;28;20046;-80
2022/11/04 02:23:53;;;;;;;6.60;1.70;;;;;;;8.94;100.00;100077.53;4996477;28;20451;-79
2022/11/04 02:26:37;;;;;;;4.10;1.63;;;;;;;8.90;100.00;100076.22;4994601;28;20038;-80
2022/11/04 02:29:25;;;;;;;8.63;2.58;;;;;;;8.85;100.00;100074.13;4994229;28;20026;-79
2022/11/04 02:32:06;;;;;;;5.93;2.13;;;;;;;8.83;100.00;100070.09;4986638;28;20531;-79
2022/11/04 02:34:39;;;;;;;5.35;1.77;;;;;;;8.79;100.00;100079.94;4992745;28;20060;-81
2022/11/04 02:37:26;;;;;;;11.25;1.67;;;;;;;8.83;100.00;100078.66;4981665;28;20129;-86
2022/11/04 02:40:28;;;;;;;7.68;1.85;;;;;;;8.82;100.00;100086.59;4960630;28;20030;-81
2022/11/04 02:43:00;;;;;;;5.20;1.45;;;;;;;8.74;100.00;100077.84;4959411;28;20050;-80
2022/11/04 02:45:34;;;;;;;5.15;2.03;;;;;;;8.74;100.00;100077.84;4970640;28;20050;-82
2022/11/04 02:48:10;;;;;;;4.97;1.58;;;;;;;8.68;100.00;100083.69;4992712;28;20062;-80
2022/11/04 02:50:42;;;;;;;5.40;1.40;;;;;;;8.66;100.00;100083.00;4989287;28;20052;-80
2022/11/04 02:53:31;;;;;;;3.75;1.20;;;;;;;8.70;100.00;100071.41;4965272;28;20039;-80
2022/11/04 02:55:59;;;;;;;6.30;1.60;;;;;;;8.65;100.00;100072.84;4954345;28;20141;-81
2022/11/04 02:58:34;;;;;;;12.23;1.75;;;;;;;8.63;100.00;100062.66;4977500;28;20210;-81
2022/11/04 03:01:02;;;;;;;6.95;1.70;;;;;;;8.63;100.00;100067.84;4969002;28;20439;-80
2022/11/04 03:03:33;;;;;;;7.22;1.55;;;;;;;8.56;100.00;100065.06;4978993;28;20041;-81
2022/11/04 03:06:00;;;;;;;7.35;1.70;;;;;;;8.54;100.00;100061.84;4959778;28;20043;-85
2022/11/04 03:08:31;;;;;;;4.75;1.63;;;;;;;8.52;100.00;100073.31;4991511;28;20029;-80
2022/11/04 03:11:13;;;;;;;4.97;1.40;;;;;;;8.53;100.00;100067.16;4990900;28;20512;-81
2022/11/04 03:13:48;;;;;;;8.32;1.67;;;;;;;8.52;100.00;100070.75;4981164;28;20546;-81
2022/11/04 03:16:22;;;;;;;15.15;1.50;;;;;;;8.52;100.00;100062.97;4988008;28;20518;-80
2022/11/04 03:19:03;;;;;;;6.55;1.25;;;;;;;8.44;100.00;100065.53;4974242;28;20034;-82
2022/11/04 03:21:33;;;;;;;10.40;1.70;;;;;;;8.43;100.00;100064.75;4997346;28;20129;-81
2022/11/04 03:24:00;;;;;;;4.18;1.50;;;;;;;8.39;100.00;100059.06;4965655;28;20050;-81
2022/11/04 03:26:39;;;;;;;10.25;1.40;;;;;;;8.35;100.00;100064.72;4978908;28;20085;-82
2022/11/04 03:29:32;;;;;;;9.95;1.73;;;;;;;8.32;100.00;100077.94;4984783;28;20037;-81
2022/11/04 03:32:36;;;;;;;11.73;1.83;;;;;;;8.27;100.00;100081.00;4983958;28;20053;-80
2022/11/04 03:35:01;;;;;;;5.25;1.55;;;;;;;8.25;100.00;100072.59;4987168;28;20054;-80
2022/11/04 03:37:27;;;;;;;6.20;1.50;;;;;;;8.25;100.00;100076.94;4985129;28;20043;-81
2022/11/04 03:39:52;;;;;;;7.22;2.47;;;;;;;8.32;100.00;100081.31;4996572;28;20023;-80
2022/11/04 03:42:19;;;;;;;7.50;1.60;;;;;;;8.28;100.00;100081.81;4990690;28;20034;-81
2022/11/04 03:44:51;;;;;;;3.15;1.27;;;;;;;8.24;100.00;100086.47;4980703;28;20117;-80
2022/11/04 03:47:19;;;;;;;5.25;1.27;;;;;;;8.24;100.00;100090.84;4979448;28;20027;-80
2022/11/04 03:49:46;;;;;;;5.30;1.20;;;;;;;8.25;100.00;100087.28;4990966;28;20476;-80
2022/11/04 03:52:13;;;;;;;5.80;1.73;;;;;;;8.23;100.00;100094.38;4987635;28;20565;-81
2022/11/04 03:54:39;;;;;;;8.38;1.40;;;;;;;8.20;100.00;100085.19;4976454;28;20082;-80
2022/11/04 03:57:26;;;;;;;6.65;1.17;;;;;;;8.18;100.00;100077.59;4979791;28;20034;-81
2022/11/04 04:00:09;;;;;;;6.75;1.60;;;;;;;8.09;100.00;100081.09;4992866;28;20030;-79
2022/11/04 04:02:53;;;;;;;8.38;1.90;;;;;;;8.09;100.00;100077.72;4977751;28;20400;-83
2022/11/04 04:05:24;;;;;;;6.63;1.65;;;;;;;8.07;100.00;100082.25;4983238;28;20031;-79
2022/11/04 04:08:20;;;;;;;8.88;1.40;;;;;;;8.08;100.00;100078.69;4977596;28;20053;-80
2022/11/04 04:10:59;;;;;;;4.85;1.10;;;;;;;8.08;100.00;100071.75;4974032;28;20044;-82
2022/11/04 04:13:36;;;;;;;7.53;1.50;;;;;;;8.05;100.00;100077.22;4981977;28;20041;-80
2022/11/04 04:16:10;;;;;;;3.88;1.20;;;;;;;8.03;100.00;100083.53;4999208;28;20045;-79
2022/11/04 04:18:45;;;;;;;6.60;1.25;;;;;;;8.01;100.00;100088.03;4989172;28;20038;-80
2022/11/04 04:21:15;;;;;;;7.97;1.20;;;;;;;7.99;100.00;100086.41;4969715;28;20038;-79
2022/11/04 04:29:16;;;;;;;5.30;1.15;;;;;;;7.94;100.00;100083.47;4991340;28;20498;-81
2022/11/04 04:31:48;;;;;;;8.15;1.10;;;;;;;7.94;100.00;100074.94;4989817;28;20048;-80
2022/11/04 04:34:15;;;;;;;4.63;1.40;;;;;;;7.92;100.00;100080.25;4961919;28;20176;-80
2022/11/04 04:36:53;;;;;;;7.43;1.73;;;;;;;7.89;100.00;100083.16;4970090;28;20062;-82
2022/11/04 04:45:08;;;;;;;12.25;2.55;;;;;;;7.83;100.00;100104.41;4973018;28;20036;-80
2022/11/04 04:47:45;;;;;;;7.38;1.40;;;;;;;7.79;100.00;100100.53;4965562;28;20031;-80
2022/11/04 04:50:14;;;;;;;10.93;1.30;;;;;;;7.73;100.00;100111.47;4988689;28;20046;-80
2022/11/04 04:52:42;;;;;;;6.65;1.75;;;;;;;7.70;100.00;100116.94;4965650;28;20050;-79
2022/11/04 04:55:08;;;;;;;10.93;3.28;;;;;;;7.67;100.00;100114.66;4962748;28;20105;-80
2022/11/04 04:57:34;;;;;;;13.65;4.85;;;;;;;7.66;100.00;100118.19;4975124;28;20051;-80
2022/11/04 04:59:59;;;;;;;9.52;3.80;;;;;;;7.63;100.00;100119.31;4971710;28;20026;-79
2022/11/04 05:02:25;;;;;;;5.68;2.88;;;;;;;7.62;100.00;100122.06;4971810;28;20476;-82
2022/11/04 05:04:50;;;;;;;7.10;2.10;;;;;;;7.60;100.00;100120.44;4987550;28;20038;-79
2022/11/04 05:07:16;;;;;;;5.45;1.80;;;;;;;7.58;100.00;100112.03;4968411;28;20039;-80
2022/11/04 05:09:42;;;;;;;9.35;2.13;;;;;;;7.57;100.00;100110.44;4988322;28;20038;-79
2022/11/04 05:12:08;;;;;;;6.88;2.70;;;;;;;7.56;100.00;100115.75;4968176;28;20030;-80
2022/11/04 05:14:34;;;;;;;3.33;1.98;;;;;;;7.51;100.00;100113.59;4962027;28;20040;-79
2022/11/04 05:17:00;;;;;;;9.88;1.80;;;;;;;7.46;100.00;100126.16;4987242;28;20042;-80
2022/11/04 05:19:25;;;;;;;3.40;1.65;;;;;;;7.40;100.00;100124.16;4983549;28;20448;-82
2022/11/04 05:21:50;;;;;;;9.70;1.70;;;;;;;7.31;100.00;100131.06;4962756;28;20061;-81
2022/11/04 05:24:16;;;;;;;6.15;1.42;;;;;;;7.25;100.00;100136.00;4987599;28;20038;-81
2022/11/04 05:26:41;;;;;;;6.25;1.30;;;;;;;7.20;100.00;100139.84;4969341;28;20049;-83
2022/11/04 05:29:08;;;;;;;5.00;1.58;;;;;;;7.24;100.00;100132.63;4974876;28;20026;-80
2022/11/04 05:31:34;;;;;;;11.98;1.60;;;;;;;7.20;100.00;100134.69;4975026;28;20057;-79
2022/11/04 05:34:00;;;;;;;7.75;1.58;;;;;;;7.20;100.00;100145.00;4987819;28;20479;-79
2022/11/04 05:36:25;;;;;;;2.70;1.50;;;;;;;7.22;100.00;100137.13;4990938;28;20038;-82
2022/11/04 05:38:54;;;;;;;9.70;2.00;;;;;;;7.24;100.00;100126.66;4975232;28;20484;-80
2022/11/04 05:41:26;;;;;;;4.15;1.85;;;;;;;7.27;100.00;100129.75;4985731;28;20073;-80
2022/11/04 05:43:57;;;;;;;6.88;1.70;;;;;;;7.28;100.00;100133.94;4972670;28;20543;-80
2022/11/04 05:46:23;;;;;;;5.03;1.58;;;;;;;7.29;100.00;100139.88;4976072;28;20130;-82
2022/11/04 05:48:49;;;;;;;4.32;1.70;;;;;;;7.27;100.00;100140.06;4975741;28;20066;-80
2022/11/04 05:51:17;;;;;;;7.50;1.67;;;;;;;7.25;100.00;100143.75;4969504;28;20035;-81
2022/11/04 05:53:42;;;;;;;13.00;1.77;;;;;;;7.22;100.00;100145.66;4958037;28;20038;-81
2022/11/04 05:56:08;;;;;;;3.58;1.42;;;;;;;7.21;100.00;100144.06;4991230;28;20031;-81
2022/11/04 05:58:33;;;;;;;9.32;1.63;;;;;;;7.16;100.00;100138.53;4977291;28;20041;-80
2022/11/04 06:01:26;;;;;;;6.38;2.05;;;;;;;7.12;100.00;100144.94;4978531;28;20557;-80
2022/11/04 06:03:52;;;;;;;4.53;1.93;;;;;;;7.09;100.00;100149.59;4970519;28;20035;-79
2022/11/04 06:06:18;;;;;;;6.10;1.42;;;;;;;7.07;100.00;100154.09;4980471;28;20034;-80
2022/11/04 06:08:44;;;;;;;3.72;1.60;;;;;;;7.06;100.00;100161.00;4978297;28;20038;-81
2022/11/04 06:11:09;;;;;;;4.35;1.40;;;;;;;7.07;100.00;100159.25;4961036;28;20031;-79
2022/11/04 06:13:35;;;;;;;2.60;1.60;;;;;;;7.06;100.00;100155.03;4991602;28;20030;-81
2022/11/04 06:16:00;;;;;;;6.57;1.95;;;;;;;7.04;100.00;100162.91;4973277;28;20050;-80
2022/11/04 06:18:26;;;;;;;4.88;1.70;;;;;;;6.99;100.00;100160.78;4984429;28;20509;-80
2022/11/04 06:21:20;;;;;;;3.53;1.90;;;;;;;6.94;100.00;100169.94;4985376;28;20037;-80
2022/11/04 06:23:45;;;;;;;7.00;3.00;;;;;;;6.89;100.00;100166.97;4976421;28;20094;-79
2022/11/04 06:26:11;;;;;;;10.30;2.85;;;;;;;6.83;100.00;100174.31;4976474;28;20503;-80
2022/11/04 06:28:37;;;;;;;8.15;3.33;;;;;;;6.79;100.00;100170.44;4980326;28;20086;-81
2022/11/04 06:31:05;;;;;;;11.43;3.22;;;;;;;6.78;100.00;100181.72;4974320;28;20049;-79
2022/11/04 06:33:32;;;;;;;9.52;3.13;;;;;;;6.73;100.00;100172.78;4978217;28;20050;-80
2022/11/04 06:35:58;;;;;;;10.98;3.33;;;;;;;6.70;100.00;100184.19;4985561;28;20628;-81
2022/11/04 06:38:24;;;;;;;8.35;2.80;;;;;;;6.71;100.00;100178.09;4976978;28;20145;-82
2022/11/04 06:40:50;;;;;;;8.18;3.22;;;;;;;6.73;100.00;100178.75;4959095;28;20503;-85
2022/11/04 06:43:15;;;;;;;9.75;2.80;;;;;;;6.76;100.00;100178.47;4975181;28;20973;-79
2022/11/04 06:45:40;;;;;;;8.40;2.92;;;;;;;6.81;100.00;100181.41;4988496;28;20050;-84
2022/11/04 06:48:06;;;;;;;6.82;2.88;;;;;;;6.84;100.00;100182.88;4974142;28;20034;-80
2022/11/04 06:50:32;;;;;;;10.55;3.90;;;;;;;6.85;100.00;100189.66;4990715;28;20043;-80
2022/11/04 06:52:58;;;;;;;11.52;4.43;;;;;;;6.85;100.00;100184.50;4975827;28;20038;-80
2022/11/04 06:55:23;;;;;;;9.18;3.83;;;;;;;6.84;100.00;100188.03;4975589;28;20503;-79
2022/11/04 06:57:49;;;;;;;7.95;3.78;;;;;;;6.81;100.00;100186.53;4993088;28;20050;-80
2022/11/04 07:00:15;;;;;;;5.63;3.33;;;;;;;6.82;100.00;100195.13;4986382;28;20034;-81
2022/11/04 07:02:40;;;;;;;7.45;3.38;;;;;;;6.82;100.00;100198.50;4971045;28;20098;-80
2022/11/04 07:05:06;;;;;;;9.15;2.70;;;;;;;6.87;100.00;100192.09;4952134;28;20031;-81
2022/11/04 07:07:32;;;;;;;7.53;2.50;;;;;;;6.90;100.00;100202.91;4961824;28;20062;-83
2022/11/04 07:09:57;;;;;;;6.80;3.05;;;;;;;6.94;100.00;100211.97;4978485;28;20384;-83
2022/11/04 07:12:23;;;;;;;10.30;4.22;;;;;;;6.97;100.00;100208.31;4984491;28;20046;-80
2022/11/04 07:14:50;;;;;;;9.18;5.18;;;;;;;6.99;100.00;100207.19;4975795;28;20132;-79
2022/11/04 07:17:16;;;;;;;9.88;3.63;;;;;;;7.01;100.00;100210.44;4963682;28;20053;-81
2022/11/04 07:19:41;;;;;;;8.75;3.08;;;;;;;7.03;100.00;100212.88;4974513;28;20559;-82
2022/11/04 07:22:07;;;;;;;12.30;3.70;;;;;;;7.06;100.00;100214.31;4956589;28;20738;-79
2022/11/04 07:24:33;;;;;;;7.35;3.42;;;;;;;7.08;100.00;100226.09;4993884;28;20030;-80
2022/11/04 07:26:58;;;;;;;12.45;3.50;;;;;;;7.12;100.00;100236.94;4974790;28;20057;-80
2022/11/04 07:29:24;;;;;;;13.85;4.80;;;;;;;7.17;100.00;100237.31;4996612;28;20031;-81
2022/11/04 07:31:49;;;;;;;9.57;3.58;;;;;;;7.18;100.00;100237.19;4998105;28;20046;-80
2022/11/04 07:34:15;;;;;;;14.85;3.35;;;;;;;7.28;100.00;100251.75;4979138;28;20088;-80
2022/11/04 07:36:40;;;;;;;9.02;3.03;;;;;;;7.33;100.00;100252.94;4964661;28;20066;-81
2022/11/04 07:39:06;;;;;;;16.98;5.03;;;;;;;7.43;100.00;100249.47;4991767;28;20506;-83
2022/11/04 07:41:31;;;;;;;17.90;4.38;;;;;;;7.43;100.00;100255.44;4991358;28;20560;-82
2022/11/04 07:43:57;;;;;;;9.05;4.18;;;;;;;7.42;100.00;100258.97;4976760;28;20031;-82
2022/11/04 07:46:23;;;;;;;11.25;4.80;;;;;;;7.41;100.00;100255.59;4960463;28;20072;-82
2022/11/04 07:48:49;;;;;;;14.43;3.90;;;;;;;7.39;100.00;100257.50;4959632;28;20034;-82
2022/11/04 07:51:16;;;;;;;15.07;3.63;;;;;;;7.37;100.00;100258.63;4992942;28;20443;-81
2022/11/04 07:53:42;;;;;;;15.77;5.60;;;;;;;7.58;100.00;100274.59;4995398;28;20058;-81
2022/11/04 07:56:12;;;;;;;11.75;5.75;;;;;;;7.59;100.00;100281.38;4982507;28;20969;-82
2022/11/04 07:58:38;;;;;;;19.23;10.38;;;;;;;7.70;100.00;100274.34;4977166;28;20059;-83
2022/11/04 08:01:13;;;;;;;13.63;9.27;;;;;;;7.74;100.00;100284.25;4982286;28;20050;-82
2022/11/04 08:03:39;;;;;;;22.73;7.47;;;;;;;7.78;100.00;100288.13;4994976;28;20038;-81
2022/11/04 08:06:06;;;;;;;15.73;5.80;;;;;;;7.76;100.00;100292.66;4973339;28;20048;-81
2022/11/04 08:08:33;;;;;;;13.45;5.45;;;;;;;7.84;100.00;100291.88;4974745;28;20479;-81
2022/11/04 08:11:14;;;;;;;12.50;3.75;;;;;;;7.86;100.00;100300.28;4973421;28;20522;-81
2022/11/04 08:13:39;;;;;;;12.60;3.17;;;;;;;7.87;100.00;100299.31;4979329;28;20030;-82
2022/11/04 08:16:08;;;;;;;21.98;4.35;;;;;;;7.97;100.00;100299.25;4982328;28;20049;-81
2022/11/04 08:18:34;;;;;;;16.27;5.18;;;;;;;8.13;100.00;100294.16;4994897;28;20034;-81
2022/11/04 08:21:01;;;;;;;9.93;3.65;;;;;;;8.01;100.00;100290.22;4978567;28;20049;-80
2022/11/04 08:23:31;;;;;;;9.85;3.30;;;;;;;7.99;100.00;100292.16;4998070;28;20109;-82
2022/11/04 08:25:57;;;;;;;10.82;3.47;;;;;;;7.99;100.00;100292.97;4971183;28;20069;-81
2022/11/04 08:28:23;;;;;;;16.52;3.20;;;;;;;7.99;100.00;100294.75;4988530;28;20057;-82
2022/11/04 08:30:52;;;;;;;12.45;4.38;;;;;;;7.99;100.00;100312.81;4976586;28;20058;-82
2022/11/04 08:33:18;;;;;;;15.55;6.88;;;;;;;8.11;100.00;100310.78;4983468;28;20038;-81
2022/11/04 08:35:43;;;;;;;11.07;5.20;;;;;;;8.13;100.00;100314.81;4980210;28;20054;-80
2022/11/04 08:38:09;;;;;;;11.32;3.75;;;;;;;8.19;100.00;100310.81;4975741;28;20058;-81
2022/11/04 08:40:37;;;;;;;11.70;3.00;;;;;;;8.21;100.00;100302.94;4980301;28;20053;-80
2022/11/04 08:43:03;;;;;;;9.98;2.97;;;;;;;8.16;100.00;100311.94;4979105;28;20070;-80
2022/11/04 08:45:28;;;;;;;12.20;3.17;;;;;;;8.25;100.00;100307.66;4980618;28;20066;-82
2022/11/04 08:47:54;;;;;;;10.68;2.40;;;;;;;8.27;100.00;100310.91;4979265;28;20046;-79
2022/11/04 08:50:20;;;;;;;10.10;2.50;;;;;;;8.33;100.00;100307.69;4971096;28;20030;-82
2022/11/04 08:52:46;;;;;;;10.25;3.90;;;;;;;8.41;100.00;100313.88;4979571;28;20045;-80
2022/11/04 08:55:11;;;;;;;10.30;2.75;;;;;;;8.50;100.00;100310.41;4982094;28;20034;-81
2022/11/04 08:57:37;;;;;;;9.88;2.35;;;;;;;8.63;100.00;100303.03;4981192;28;20073;-81
2022/11/04 09:00:03;;;;;;;7.07;2.40;;;;;;;8.64;100.00;100307.22;5002682;28;20031;-83
2022/11/04 09:02:28;;;;;;;13.63;2.70;;;;;;;8.70;100.00;100314.38;4973880;28;20098;-83
2022/11/04 09:04:54;;;;;;;7.53;2.35;;;;;;;8.64;100.00;100317.56;4984906;28;20065;-81
2022/11/04 09:07:19;;;;;;;8.98;2.30;;;;;;;8.64;100.00;100320.13;4998132;28;20038;-82
2022/11/04 09:09:45;;;;;;;8.52;2.80;;;;;;;8.64;100.00;100322.72;4979334;28;20495;-81
2022/11/04 09:12:10;;;;;;;4.47;2.17;;;;;;;8.69;100.00;100328.25;4979554;28;20042;-82
2022/11/04 09:14:36;;;;;;;11.77;3.28;;;;;;;8.83;100.00;100328.63;4986151;28;20042;-81
2022/11/04 09:17:01;;;;;;;12.98;2.80;;;;;;;8.87;100.00;100324.75;4995680;28;20042;-81
2022/11/04 09:19:27;;;;;;;6.63;2.38;;;;;;;8.94;100.00;100323.16;4999669;28;20072;-82
2022/11/04 09:21:53;;;;;;;8.80;2.28;;;;;;;9.06;99.12;100329.69;4981999;28;20566;-82
2022/11/04 09:24:18;;;;;;;8.32;2.53;;;;;;;9.11;98.84;100324.81;4987602;28;20389;-83
2022/11/04 09:26:44;;;;;;;10.85;2.47;;;;;;;9.25;98.05;100322.59;4968564;28;20041;-82
2022/11/04 09:29:09;;;;;;;10.38;2.92;;;;;;;9.28;97.88;100325.69;4979481;28;20038;-82
2022/11/04 09:31:36;;;;;;;12.63;2.17;;;;;;;9.32;96.59;100324.41;4981194;28;20049;-82
2022/11/04 09:34:01;;;;;;;10.50;2.60;;;;;;;9.41;96.76;100330.41;5001057;28;20042;-85
2022/11/04 09:36:28;;;;;;;10.88;2.90;;;;;;;9.66;95.61;100325.25;4999778;28;20052;-83
2022/11/04 09:38:53;;;;;;;10.63;2.60;;;;;;;9.81;94.86;100330.59;5003426;28;20030;-83
2022/11/04 09:41:28;;;;;;;8.07;2.40;;;;;;;10.02;95.23;100330.09;4980287;28;20062;-82
2022/11/04 09:44:15;;;;;;;10.48;2.85;;;;;;;10.15;95.72;100322.63;4996183;28;20046;-83
2022/11/04 09:46:43;;;;;;;15.82;2.55;;;;;;;10.19;92.89;100325.69;4988452;28;20038;-84
2022/11/04 09:49:11;;;;;;;10.35;2.22;;;;;;;10.18;92.32;100334.44;4964028;28;20086;-83
2022/11/04 09:51:37;;;;;;;12.75;2.05;;;;;;;10.16;92.42;100331.22;4963623;28;20510;-84
2022/11/04 09:54:13;;;;;;;13.75;3.22;;;;;;;10.31;91.92;100334.78;4976595;28;20030;-86
2022/11/04 09:56:43;;;;;;;10.93;2.50;;;;;;;10.31;90.63;100330.41;4975301;28;20049;-83
2022/11/04 09:59:13;;;;;;;12.00;2.72;;;;;;;10.43;91.05;100327.44;4968335;28;20058;-83
2022/11/04 10:01:51;;;;;;;15.20;3.92;;;;;;;10.51;92.41;100325.66;4991892;28;20046;-83
2022/11/04 10:04:47;;;;;;;14.82;2.22;;;;;;;10.64;91.90;100309.56;4983614;28;20439;-84
2022/11/04 10:07:50;;;;;;;9.60;2.13;;;;;;;10.63;89.72;100317.50;4966672;28;20042;-83
2022/11/04 10:10:24;;;;;;;6.68;2.03;;;;;;;10.58;90.44;100319.78;4988512;28;20068;-83
2022/11/04 10:13:08;;;;;;;16.02;2.60;;;;;;;10.59;89.80;100340.38;4991978;28;20046;-83
2022/11/04 10:16:06;;;;;;;9.57;2.05;;;;;;;10.56;91.02;100342.50;4990738;28;20046;-82
2022/11/04 10:18:51;;;;;;;6.63;2.15;;;;;;;10.51;91.85;100346.41;4972901;28;20038;-82
2022/11/04 10:21:47;;;;;;;5.88;1.70;;;;;;;10.56;91.93;100352.84;4976603;28;20042;-82
2022/11/04 10:24:28;;;;;;;10.45;2.40;;;;;;;10.62;92.00;100344.41;4991877;28;20038;-83
2022/11/04 10:27:33;;;;;;;14.48;2.85;;;;;;;10.63;91.21;100341.66;4965896;28;20687;-83
2022/11/04 10:30:21;;;;;;;12.77;2.30;;;;;;;10.66;90.80;100332.72;4899485;29;20066;-83
2022/11/04 10:33:15;;;;;;;13.23;2.60;;;;;;;10.67;90.94;100335.16;4972145;28;20039;-84
2022/11/04 10:35:51;;;;;;;12.80;2.53;;;;;;;10.63;91.48;100330.47;4990659;28;20101;-82
2022/11/04 10:38:21;;;;;;;10.18;2.90;;;;;;;10.56;91.17;100337.31;4984780;28;20042;-85
2022/11/04 10:40:52;;;;;;;14.32;2.50;;;;;;;10.55;91.34;100333.06;4961797;28;20051;-83
2022/11/04 10:43:32;;;;;;;8.45;3.58;;;;;;;10.52;90.18;100340.22;4975319;28;20030;-83
2022/11/04 10:46:07;;;;;;;12.73;2.80;;;;;;;10.52;90.25;100353.19;4999998;28;20046;-83
2022/11/04 10:48:57;;;;;;;7.80;2.60;;;;;;;10.58;91.20;100354.31;5002252;28;20034;-85
2022/11/04 10:51:23;;;;;;;11.77;2.25;;;;;;;10.71;90.98;100358.97;4958682;28;20042;-85
2022/11/04 10:53:54;;;;;;;12.60;2.95;;;;;;;10.74;90.43;100361.22;4984767;28;20133;-83
2022/11/04 10:56:50;;;;;;;8.70;1.92;;;;;;;10.80;89.84;100362.34;4999079;28;20038;-83
2022/11/04 10:59:23;;;;;;;6.25;1.92;;;;;;;10.92;89.05;100366.16;4986877;28;20110;-84
2022/11/04 11:01:57;;;;;;;9.00;1.85;;;;;;;11.02;89.54;100363.38;5000888;28;20034;-82
2022/11/04 11:04:25;;;;;;;7.63;1.58;;;;;;;11.06;89.39;100372.47;4987892;28;20038;-85
2022/11/04 11:06:52;;;;;;;6.30;1.63;;;;;;;11.07;88.79;100377.44;4989257;28;20042;-85
2022/11/04 11:09:24;;;;;;;12.60;2.85;;;;;;;11.12;88.39;100374.38;4970474;28;20042;-84
2022/11/04 11:11:51;;;;;;;6.28;1.60;;;;;;;11.10;88.45;100379.72;4963462;28;20050;-83
2022/11/04 11:14:29;;;;;;;6.28;1.40;;;;;;;11.16;89.01;100380.81;4978424;28;20034;-83
2022/11/04 11:17:33;;;;;;;9.85;1.70;;;;;;;11.16;89.44;100380.03;4953333;28;20075;-82
2022/11/04 11:20:07;;;;;;;11.27;1.67;;;;;;;11.29;88.30;100380.28;4935674;28;20050;-82
2022/11/04 11:22:44;;;;;;;6.47;1.58;;;;;;;11.20;87.85;100389.88;4989511;28;20657;-82
2022/11/04 11:25:23;;;;;;;5.32;1.33;;;;;;;11.15;89.43;100400.00;4973747;28;20120;-80
2022/11/04 11:27:56;;;;;;;8.10;1.70;;;;;;;11.13;90.15;100404.50;4981552;28;20047;-83
2022/11/04 11:30:25;;;;;;;11.88;1.85;;;;;;;11.15;90.90;100409.53;4994924;28;20021;-81
2022/11/04 11:32:54;;;;;;;6.85;1.77;;;;;;;11.16;90.89;100408.56;4992319;28;20061;-82
2022/11/04 11:35:25;;;;;;;7.85;1.80;;;;;;;11.18;90.32;100404.03;4991456;28;20607;-81
2022/11/04 11:37:51;;;;;;;9.48;1.52;;;;;;;11.24;89.68;100404.13;4986452;28;20053;-81
2022/11/04 11:40:24;;;;;;;7.07;2.30;;;;;;;11.27;88.58;100403.81;4992764;28;20039;-81
2022/11/04 11:42:49;;;;;;;7.97;1.63;;;;;;;11.28;88.54;100413.22;4979734;28;20050;-84
2022/11/04 11:45:15;;;;;;;11.75;2.78;;;;;;;11.25;89.25;100415.34;4962082;28;20035;-82
2022/11/04 11:47:42;;;;;;;8.50;2.50;;;;;;;11.26;88.38;100420.38;4956356;28;20042;-81
2022/11/04 11:50:13;;;;;;;8.73;1.77;;;;;;;11.27;88.54;100416.78;4986516;28;20113;-81
2022/11/04 11:52:40;;;;;;;4.85;1.38;;;;;;;11.29;88.20;100427.00;4961233;28;20042;-82
2022/11/04 11:55:27;;;;;;;7.53;1.60;;;;;;;11.37;87.61;100428.75;4976577;28;20388;-82
2022/11/04 11:58:11;;;;;;;9.23;2.90;;;;;;;11.36;87.51;100416.72;4993656;28;20499;-80
2022/11/04 12:00:43;;;;;;;10.27;3.45;;;;;;;11.36;87.45;100432.31;4975266;28;20047;-81
2022/11/04 12:03:12;;;;;;;6.72;2.55;;;;;;;11.34;87.10;100423.88;4959808;28;20176;-82
2022/11/04 12:06:02;;;;;;;7.50;2.20;;;;;;;11.32;87.19;100424.06;4977594;28;20038;-81
2022/11/04 12:08:51;;;;;;;10.77;3.00;;;;;;;11.31;87.57;100419.84;4971392;28;20061;-81